sensor_id;sensor_type;location;lat;lon;timestamp;P1;durP1;ratioP1;P2;durP2;ratioP2
14040;SDS011;7095;51.388;6.196;2022-10-10T00:01:33;7.53;;;3.73;;
14040;SDS011;7095;51.388;6.196;2022-10-10T00:04:03;11.17;;;3.83;;
14040;SDS011;7095;51.388;6.196;2022-10-10T00:06:35;9.30;;;4.03;;
14040;SDS011;7095;51.388;6.196;2022-10-10T00:09:04;4.83;;;3.90;;
14040;SDS011;7095;51.388;6.196;2022-10-10T00:11:34;4.47;;;3.87;;
14040;SDS011;7095;51.388;6.196;2022-10-10T00:14:02;5.17;;;3.30;;
14040;SDS011;7095;51.388;6.196;2022-10-10T00:16:31;6.30;;;3.80;;
14040;SDS011;7095;51.388;6.196;2022-10-10T00:18:59;6.37;;;3.60;;
14040;SDS011;7095;51.388;6.196;2022-10-10T00:21:28;6.93;;;4.20;;
14040;SDS011;7095;51.388;6.196;2022-10-10T00:23:58;5.97;;;3.83;;
14040;SDS011;7095;51.388;6.196;2022-10-10T00:26:27;9.67;;;3.90;;
14040;SDS011;7095;51.388;6.196;2022-10-10T00:28:56;9.27;;;4.07;;
14040;SDS011;7095;51.388;6.196;2022-10-10T00:31:25;6.47;;;3.83;;
14040;SDS011;7095;51.388;6.196;2022-10-10T00:33:53;5.40;;;3.37;;
14040;SDS011;7095;51.388;6.196;2022-10-10T00:36:22;8.47;;;4.00;;
14040;SDS011;7095;51.388;6.196;2022-10-10T00:38:50;7.83;;;4.27;;
14040;SDS011;7095;51.388;6.196;2022-10-10T00:41:18;5.97;;;3.70;;
14040;SDS011;7095;51.388;6.196;2022-10-10T00:44:06;7.93;;;4.10;;
14040;SDS011;7095;51.388;6.196;2022-10-10T00:46:36;6.00;;;4.33;;
14040;SDS011;7095;51.388;6.196;2022-10-10T00:49:06;9.20;;;4.33;;
14040;SDS011;7095;51.388;6.196;2022-10-10T00:51:37;7.93;;;3.90;;
14040;SDS011;7095;51.388;6.196;2022-10-10T00:54:07;9.20;;;4.23;;
14040;SDS011;7095;51.388;6.196;2022-10-10T00:56:39;7.20;;;4.10;;
14040;SDS011;7095;51.388;6.196;2022-10-10T00:59:12;9.23;;;4.17;;
14040;SDS011;7095;51.388;6.196;2022-10-10T01:01:41;9.67;;;3.90;;
14040;SDS011;7095;51.388;6.196;2022-10-10T01:04:26;11.90;;;3.77;;
14040;SDS011;7095;51.388;6.196;2022-10-10T01:06:56;7.60;;;3.93;;
14040;SDS011;7095;51.388;6.196;2022-10-10T01:09:26;6.77;;;4.47;;
14040;SDS011;7095;51.388;6.196;2022-10-10T01:12:00;13.20;;;4.40;;
14040;SDS011;7095;51.388;6.196;2022-10-10T01:14:41;8.33;;;4.23;;
14040;SDS011;7095;51.388;6.196;2022-10-10T01:17:17;6.90;;;3.93;;
14040;SDS011;7095;51.388;6.196;2022-10-10T01:20:10;8.23;;;3.93;;
14040;SDS011;7095;51.388;6.196;2022-10-10T01:22:58;4.87;;;3.70;;
14040;SDS011;7095;51.388;6.196;2022-10-10T01:25:39;7.00;;;3.50;;
14040;SDS011;7095;51.388;6.196;2022-10-10T01:28:24;12.00;;;4.77;;
14040;SDS011;7095;51.388;6.196;2022-10-10T01:31:04;9.63;;;4.40;;
14040;SDS011;7095;51.388;6.196;2022-10-10T01:33:36;11.93;;;4.93;;
14040;SDS011;7095;51.388;6.196;2022-10-10T01:36:13;6.90;;;3.70;;
14040;SDS011;7095;51.388;6.196;2022-10-10T01:38:49;7.33;;;3.53;;
14040;SDS011;7095;51.388;6.196;2022-10-10T01:41:23;9.53;;;4.60;;
14040;SDS011;7095;51.388;6.196;2022-10-10T01:43:56;8.20;;;3.80;;
14040;SDS011;7095;51.388;6.196;2022-10-10T01:46:25;12.70;;;4.60;;
14040;SDS011;7095;51.388;6.196;2022-10-10T01:48:56;10.10;;;3.90;;
14040;SDS011;7095;51.388;6.196;2022-10-10T01:51:29;8.57;;;4.00;;
14040;SDS011;7095;51.388;6.196;2022-10-10T01:54:18;8.03;;;3.93;;
14040;SDS011;7095;51.388;6.196;2022-10-10T01:57:07;9.13;;;4.30;;
14040;SDS011;7095;51.388;6.196;2022-10-10T01:59:47;9.70;;;4.20;;
14040;SDS011;7095;51.388;6.196;2022-10-10T02:02:27;11.20;;;4.23;;
14040;SDS011;7095;51.388;6.196;2022-10-10T02:05:18;5.47;;;3.73;;
14040;SDS011;7095;51.388;6.196;2022-10-10T02:07:52;9.17;;;3.70;;
14040;SDS011;7095;51.388;6.196;2022-10-10T02:10:26;7.67;;;3.70;;
14040;SDS011;7095;51.388;6.196;2022-10-10T02:12:59;8.67;;;3.87;;
14040;SDS011;7095;51.388;6.196;2022-10-10T02:15:32;7.53;;;3.97;;
14040;SDS011;7095;51.388;6.196;2022-10-10T02:18:05;6.53;;;4.23;;
14040;SDS011;7095;51.388;6.196;2022-10-10T02:20:37;7.13;;;4.50;;
14040;SDS011;7095;51.388;6.196;2022-10-10T02:23:06;8.53;;;4.17;;
14040;SDS011;7095;51.388;6.196;2022-10-10T02:25:38;11.80;;;4.30;;
14040;SDS011;7095;51.388;6.196;2022-10-10T02:28:09;7.07;;;3.70;;
14040;SDS011;7095;51.388;6.196;2022-10-10T02:30:44;8.30;;;3.80;;
14040;SDS011;7095;51.388;6.196;2022-10-10T02:33:18;4.77;;;3.77;;
14040;SDS011;7095;51.388;6.196;2022-10-10T02:35:50;9.07;;;4.07;;
14040;SDS011;7095;51.388;6.196;2022-10-10T02:38:20;10.93;;;4.40;;
14040;SDS011;7095;51.388;6.196;2022-10-10T02:40:48;9.43;;;4.43;;
14040;SDS011;7095;51.388;6.196;2022-10-10T02:43:17;5.07;;;4.03;;
14040;SDS011;7095;51.388;6.196;2022-10-10T02:45:48;6.90;;;4.43;;
14040;SDS011;7095;51.388;6.196;2022-10-10T02:48:17;7.73;;;4.70;;
14040;SDS011;7095;51.388;6.196;2022-10-10T02:50:45;10.00;;;4.27;;
14040;SDS011;7095;51.388;6.196;2022-10-10T02:53:14;8.80;;;4.30;;
14040;SDS011;7095;51.388;6.196;2022-10-10T02:55:42;8.77;;;4.40;;
14040;SDS011;7095;51.388;6.196;2022-10-10T02:58:10;10.43;;;4.50;;
14040;SDS011;7095;51.388;6.196;2022-10-10T03:00:40;9.10;;;4.27;;
14040;SDS011;7095;51.388;6.196;2022-10-10T03:03:09;7.07;;;4.20;;
14040;SDS011;7095;51.388;6.196;2022-10-10T03:05:39;16.07;;;4.80;;
14040;SDS011;7095;51.388;6.196;2022-10-10T03:08:07;9.17;;;4.30;;
14040;SDS011;7095;51.388;6.196;2022-10-10T03:10:37;7.87;;;4.30;;
14040;SDS011;7095;51.388;6.196;2022-10-10T03:13:06;5.53;;;4.27;;
14040;SDS011;7095;51.388;6.196;2022-10-10T03:15:34;12.57;;;4.43;;
14040;SDS011;7095;51.388;6.196;2022-10-10T03:18:04;6.13;;;3.97;;
14040;SDS011;7095;51.388;6.196;2022-10-10T03:20:34;10.37;;;4.80;;
14040;SDS011;7095;51.388;6.196;2022-10-10T03:23:03;10.37;;;4.50;;
14040;SDS011;7095;51.388;6.196;2022-10-10T03:25:31;6.57;;;4.47;;
14040;SDS011;7095;51.388;6.196;2022-10-10T03:28:00;10.87;;;4.40;;
14040;SDS011;7095;51.388;6.196;2022-10-10T03:30:29;9.27;;;4.63;;
14040;SDS011;7095;51.388;6.196;2022-10-10T03:32:58;7.73;;;4.00;;
14040;SDS011;7095;51.388;6.196;2022-10-10T03:35:27;10.60;;;4.77;;
14040;SDS011;7095;51.388;6.196;2022-10-10T03:37:57;10.07;;;4.67;;
14040;SDS011;7095;51.388;6.196;2022-10-10T03:40:26;10.53;;;4.60;;
14040;SDS011;7095;51.388;6.196;2022-10-10T03:42:58;7.83;;;4.23;;
14040;SDS011;7095;51.388;6.196;2022-10-10T03:45:26;11.27;;;4.57;;
14040;SDS011;7095;51.388;6.196;2022-10-10T03:47:54;11.27;;;4.43;;
14040;SDS011;7095;51.388;6.196;2022-10-10T03:50:23;11.03;;;5.93;;
14040;SDS011;7095;51.388;6.196;2022-10-10T03:52:51;6.27;;;4.50;;
14040;SDS011;7095;51.388;6.196;2022-10-10T03:55:21;11.50;;;4.60;;
14040;SDS011;7095;51.388;6.196;2022-10-10T03:57:49;15.20;;;4.70;;
14040;SDS011;7095;51.388;6.196;2022-10-10T04:00:18;7.17;;;4.53;;
14040;SDS011;7095;51.388;6.196;2022-10-10T04:02:47;8.23;;;4.33;;
14040;SDS011;7095;51.388;6.196;2022-10-10T04:05:15;11.57;;;4.90;;
14040;SDS011;7095;51.388;6.196;2022-10-10T04:07:44;7.77;;;4.13;;
14040;SDS011;7095;51.388;6.196;2022-10-10T04:10:12;13.17;;;5.33;;
14040;SDS011;7095;51.388;6.196;2022-10-10T04:12:42;7.23;;;4.23;;
14040;SDS011;7095;51.388;6.196;2022-10-10T04:15:11;7.57;;;4.43;;
14040;SDS011;7095;51.388;6.196;2022-10-10T04:17:39;12.27;;;4.60;;
14040;SDS011;7095;51.388;6.196;2022-10-10T04:20:08;9.83;;;4.50;;
14040;SDS011;7095;51.388;6.196;2022-10-10T04:22:36;9.33;;;4.40;;
14040;SDS011;7095;51.388;6.196;2022-10-10T04:25:05;8.80;;;4.70;;
14040;SDS011;7095;51.388;6.196;2022-10-10T04:27:33;7.90;;;5.03;;
14040;SDS011;7095;51.388;6.196;2022-10-10T04:30:04;6.20;;;4.60;;
14040;SDS011;7095;51.388;6.196;2022-10-10T04:32:33;11.93;;;4.50;;
14040;SDS011;7095;51.388;6.196;2022-10-10T04:35:02;6.80;;;4.40;;
14040;SDS011;7095;51.388;6.196;2022-10-10T04:37:32;7.47;;;5.20;;
14040;SDS011;7095;51.388;6.196;2022-10-10T04:40:01;6.17;;;4.30;;
14040;SDS011;7095;51.388;6.196;2022-10-10T04:42:29;5.17;;;3.97;;
14040;SDS011;7095;51.388;6.196;2022-10-10T04:44:58;8.70;;;4.60;;
14040;SDS011;7095;51.388;6.196;2022-10-10T04:47:28;7.33;;;3.90;;
14040;SDS011;7095;51.388;6.196;2022-10-10T04:49:56;8.70;;;4.90;;
14040;SDS011;7095;51.388;6.196;2022-10-10T04:52:25;8.10;;;4.63;;
14040;SDS011;7095;51.388;6.196;2022-10-10T04:54:53;11.87;;;4.77;;
14040;SDS011;7095;51.388;6.196;2022-10-10T04:57:22;13.33;;;5.00;;
14040;SDS011;7095;51.388;6.196;2022-10-10T04:59:50;8.47;;;4.73;;
14040;SDS011;7095;51.388;6.196;2022-10-10T05:02:19;6.33;;;4.63;;
14040;SDS011;7095;51.388;6.196;2022-10-10T05:04:49;7.70;;;4.80;;
14040;SDS011;7095;51.388;6.196;2022-10-10T05:07:17;7.30;;;4.77;;
14040;SDS011;7095;51.388;6.196;2022-10-10T05:09:45;8.03;;;4.90;;
14040;SDS011;7095;51.388;6.196;2022-10-10T05:12:16;6.10;;;4.77;;
14040;SDS011;7095;51.388;6.196;2022-10-10T05:14:45;14.10;;;5.07;;
14040;SDS011;7095;51.388;6.196;2022-10-10T05:17:14;7.77;;;4.70;;
14040;SDS011;7095;51.388;6.196;2022-10-10T05:19:42;16.47;;;5.40;;
14040;SDS011;7095;51.388;6.196;2022-10-10T05:22:12;12.23;;;5.17;;
14040;SDS011;7095;51.388;6.196;2022-10-10T05:24:40;8.70;;;5.33;;
14040;SDS011;7095;51.388;6.196;2022-10-10T05:27:09;10.07;;;5.17;;
14040;SDS011;7095;51.388;6.196;2022-10-10T05:29:37;10.83;;;5.07;;
14040;SDS011;7095;51.388;6.196;2022-10-10T05:32:06;8.57;;;5.00;;
14040;SDS011;7095;51.388;6.196;2022-10-10T05:34:36;16.43;;;4.90;;
14040;SDS011;7095;51.388;6.196;2022-10-10T05:37:04;8.93;;;4.40;;
14040;SDS011;7095;51.388;6.196;2022-10-10T05:39:34;10.07;;;4.47;;
14040;SDS011;7095;51.388;6.196;2022-10-10T05:42:02;8.93;;;4.67;;
14040;SDS011;7095;51.388;6.196;2022-10-10T05:44:31;5.70;;;4.37;;
14040;SDS011;7095;51.388;6.196;2022-10-10T05:47:00;9.50;;;5.40;;
14040;SDS011;7095;51.388;6.196;2022-10-10T05:49:30;11.07;;;5.47;;
14040;SDS011;7095;51.388;6.196;2022-10-10T05:51:58;12.50;;;6.10;;
14040;SDS011;7095;51.388;6.196;2022-10-10T05:54:29;9.30;;;5.43;;
14040;SDS011;7095;51.388;6.196;2022-10-10T05:56:58;8.87;;;5.30;;
14040;SDS011;7095;51.388;6.196;2022-10-10T05:59:27;8.50;;;5.43;;
14040;SDS011;7095;51.388;6.196;2022-10-10T06:01:57;10.23;;;5.97;;
14040;SDS011;7095;51.388;6.196;2022-10-10T06:04:25;10.80;;;5.83;;
14040;SDS011;7095;51.388;6.196;2022-10-10T06:06:54;10.70;;;5.30;;
14040;SDS011;7095;51.388;6.196;2022-10-10T06:09:22;8.70;;;5.67;;
14040;SDS011;7095;51.388;6.196;2022-10-10T06:11:51;11.83;;;5.67;;
14040;SDS011;7095;51.388;6.196;2022-10-10T06:14:21;14.10;;;6.30;;
14040;SDS011;7095;51.388;6.196;2022-10-10T06:16:49;11.23;;;5.77;;
14040;SDS011;7095;51.388;6.196;2022-10-10T06:19:17;13.47;;;5.80;;
14040;SDS011;7095;51.388;6.196;2022-10-10T06:21:47;12.97;;;5.77;;
14040;SDS011;7095;51.388;6.196;2022-10-10T06:24:16;11.50;;;6.57;;
14040;SDS011;7095;51.388;6.196;2022-10-10T06:26:44;9.77;;;6.03;;
14040;SDS011;7095;51.388;6.196;2022-10-10T06:29:13;11.43;;;5.97;;
14040;SDS011;7095;51.388;6.196;2022-10-10T06:31:42;13.77;;;6.83;;
14040;SDS011;7095;51.388;6.196;2022-10-10T06:34:11;11.83;;;6.43;;
14040;SDS011;7095;51.388;6.196;2022-10-10T06:36:42;12.20;;;6.40;;
14040;SDS011;7095;51.388;6.196;2022-10-10T06:39:10;9.60;;;5.93;;
14040;SDS011;7095;51.388;6.196;2022-10-10T06:41:38;11.80;;;5.93;;
14040;SDS011;7095;51.388;6.196;2022-10-10T06:44:09;10.53;;;6.07;;
14040;SDS011;7095;51.388;6.196;2022-10-10T06:46:37;14.90;;;6.60;;
14040;SDS011;7095;51.388;6.196;2022-10-10T06:49:07;11.63;;;6.10;;
14040;SDS011;7095;51.388;6.196;2022-10-10T06:51:36;13.57;;;7.23;;
14040;SDS011;7095;51.388;6.196;2022-10-10T06:54:05;9.83;;;6.10;;
14040;SDS011;7095;51.388;6.196;2022-10-10T06:56:33;10.53;;;6.07;;
14040;SDS011;7095;51.388;6.196;2022-10-10T06:59:01;12.53;;;6.47;;
14040;SDS011;7095;51.388;6.196;2022-10-10T07:01:30;12.00;;;6.47;;
14040;SDS011;7095;51.388;6.196;2022-10-10T07:03:58;9.67;;;6.77;;
14040;SDS011;7095;51.388;6.196;2022-10-10T07:06:28;12.53;;;6.57;;
14040;SDS011;7095;51.388;6.196;2022-10-10T07:09:00;13.77;;;6.50;;
14040;SDS011;7095;51.388;6.196;2022-10-10T07:11:29;10.17;;;6.70;;
14040;SDS011;7095;51.388;6.196;2022-10-10T07:13:58;12.07;;;6.80;;
14040;SDS011;7095;51.388;6.196;2022-10-10T07:16:26;10.00;;;5.97;;
14040;SDS011;7095;51.388;6.196;2022-10-10T07:18:54;11.53;;;6.93;;
14040;SDS011;7095;51.388;6.196;2022-10-10T07:21:23;11.73;;;7.20;;
14040;SDS011;7095;51.388;6.196;2022-10-10T07:23:53;14.17;;;7.57;;
14040;SDS011;7095;51.388;6.196;2022-10-10T07:26:21;14.23;;;7.00;;
14040;SDS011;7095;51.388;6.196;2022-10-10T07:28:53;19.60;;;7.40;;
14040;SDS011;7095;51.388;6.196;2022-10-10T07:31:22;10.60;;;6.40;;
14040;SDS011;7095;51.388;6.196;2022-10-10T07:33:50;13.97;;;6.83;;
14040;SDS011;7095;51.388;6.196;2022-10-10T07:36:18;11.50;;;6.53;;
14040;SDS011;7095;51.388;6.196;2022-10-10T07:38:48;12.60;;;6.87;;
14040;SDS011;7095;51.388;6.196;2022-10-10T07:41:20;11.40;;;7.17;;
14040;SDS011;7095;51.388;6.196;2022-10-10T07:43:52;22.73;;;7.97;;
14040;SDS011;7095;51.388;6.196;2022-10-10T07:46:24;11.77;;;8.23;;
14040;SDS011;7095;51.388;6.196;2022-10-10T07:48:59;10.43;;;7.67;;
14040;SDS011;7095;51.388;6.196;2022-10-10T07:51:35;15.00;;;7.17;;
14040;SDS011;7095;51.388;6.196;2022-10-10T07:54:18;13.87;;;7.07;;
14040;SDS011;7095;51.388;6.196;2022-10-10T07:56:49;15.33;;;8.50;;
14040;SDS011;7095;51.388;6.196;2022-10-10T07:59:21;13.43;;;7.40;;
14040;SDS011;7095;51.388;6.196;2022-10-10T08:01:53;13.73;;;7.93;;
14040;SDS011;7095;51.388;6.196;2022-10-10T08:04:29;15.13;;;7.80;;
14040;SDS011;7095;51.388;6.196;2022-10-10T08:07:12;11.83;;;7.63;;
14040;SDS011;7095;51.388;6.196;2022-10-10T08:09:48;12.57;;;7.00;;
14040;SDS011;7095;51.388;6.196;2022-10-10T08:12:19;10.77;;;6.93;;
14040;SDS011;7095;51.388;6.196;2022-10-10T08:15:14;9.73;;;6.47;;
14040;SDS011;7095;51.388;6.196;2022-10-10T08:18:21;13.93;;;6.53;;
14040;SDS011;7095;51.388;6.196;2022-10-10T08:20:57;19.67;;;6.33;;
14040;SDS011;7095;51.388;6.196;2022-10-10T08:23:26;8.00;;;5.60;;
14040;SDS011;7095;51.388;6.196;2022-10-10T08:25:58;12.80;;;6.30;;
14040;SDS011;7095;51.388;6.196;2022-10-10T08:28:29;16.50;;;6.07;;
14040;SDS011;7095;51.388;6.196;2022-10-10T08:30:58;11.77;;;5.90;;
14040;SDS011;7095;51.388;6.196;2022-10-10T08:33:34;10.57;;;5.73;;
14040;SDS011;7095;51.388;6.196;2022-10-10T08:36:04;16.87;;;5.60;;
14040;SDS011;7095;51.388;6.196;2022-10-10T08:38:34;8.67;;;5.30;;
14040;SDS011;7095;51.388;6.196;2022-10-10T08:41:05;10.50;;;5.70;;
14040;SDS011;7095;51.388;6.196;2022-10-10T08:43:39;9.03;;;5.17;;
14040;SDS011;7095;51.388;6.196;2022-10-10T08:46:13;12.23;;;5.47;;
14040;SDS011;7095;51.388;6.196;2022-10-10T08:48:45;10.20;;;4.67;;
14040;SDS011;7095;51.388;6.196;2022-10-10T08:51:19;16.90;;;6.00;;
14040;SDS011;7095;51.388;6.196;2022-10-10T08:53:53;9.97;;;4.23;;
14040;SDS011;7095;51.388;6.196;2022-10-10T08:56:25;11.10;;;4.50;;
14040;SDS011;7095;51.388;6.196;2022-10-10T08:58:59;10.17;;;5.60;;
14040;SDS011;7095;51.388;6.196;2022-10-10T09:01:36;10.47;;;4.37;;
14040;SDS011;7095;51.388;6.196;2022-10-10T09:04:25;14.63;;;4.60;;
14040;SDS011;7095;51.388;6.196;2022-10-10T09:06:58;8.03;;;4.60;;
14040;SDS011;7095;51.388;6.196;2022-10-10T09:09:42;8.63;;;4.60;;
14040;SDS011;7095;51.388;6.196;2022-10-10T09:12:23;8.93;;;4.97;;
14040;SDS011;7095;51.388;6.196;2022-10-10T09:15:01;13.33;;;4.80;;
14040;SDS011;7095;51.388;6.196;2022-10-10T09:17:40;11.23;;;5.20;;
14040;SDS011;7095;51.388;6.196;2022-10-10T09:20:15;12.30;;;4.80;;
14040;SDS011;7095;51.388;6.196;2022-10-10T09:22:53;10.80;;;5.37;;
14040;SDS011;7095;51.388;6.196;2022-10-10T09:25:29;12.33;;;5.30;;
14040;SDS011;7095;51.388;6.196;2022-10-10T09:28:02;13.93;;;5.07;;
14040;SDS011;7095;51.388;6.196;2022-10-10T09:30:41;8.53;;;5.30;;
14040;SDS011;7095;51.388;6.196;2022-10-10T09:33:17;12.00;;;4.53;;
14040;SDS011;7095;51.388;6.196;2022-10-10T09:35:53;14.30;;;5.33;;
14040;SDS011;7095;51.388;6.196;2022-10-10T09:38:27;16.73;;;5.63;;
14040;SDS011;7095;51.388;6.196;2022-10-10T09:41:04;7.57;;;4.63;;
14040;SDS011;7095;51.388;6.196;2022-10-10T09:43:40;13.57;;;4.97;;
14040;SDS011;7095;51.388;6.196;2022-10-10T09:46:10;13.13;;;4.80;;
14040;SDS011;7095;51.388;6.196;2022-10-10T09:48:39;10.67;;;5.20;;
14040;SDS011;7095;51.388;6.196;2022-10-10T09:51:11;11.10;;;4.80;;
14040;SDS011;7095;51.388;6.196;2022-10-10T09:53:42;10.57;;;5.17;;
14040;SDS011;7095;51.388;6.196;2022-10-10T09:56:13;17.17;;;5.23;;
14040;SDS011;7095;51.388;6.196;2022-10-10T09:58:45;8.07;;;4.00;;
14040;SDS011;7095;51.388;6.196;2022-10-10T10:01:18;15.20;;;5.67;;
14040;SDS011;7095;51.388;6.196;2022-10-10T10:07:02;8.93;;;4.73;;
14040;SDS011;7095;51.388;6.196;2022-10-10T10:09:35;14.57;;;4.70;;
14040;SDS011;7095;51.388;6.196;2022-10-10T10:12:04;11.27;;;4.40;;
14040;SDS011;7095;51.388;6.196;2022-10-10T10:14:34;12.60;;;5.20;;
14040;SDS011;7095;51.388;6.196;2022-10-10T10:17:19;10.50;;;4.70;;
14040;SDS011;7095;51.388;6.196;2022-10-10T10:19:50;9.70;;;4.43;;
14040;SDS011;7095;51.388;6.196;2022-10-10T10:22:22;14.37;;;4.57;;
14040;SDS011;7095;51.388;6.196;2022-10-10T10:24:59;14.20;;;4.97;;
14040;SDS011;7095;51.388;6.196;2022-10-10T10:30:48;9.33;;;4.17;;
14040;SDS011;7095;51.388;6.196;2022-10-10T10:36:16;13.10;;;4.00;;
14040;SDS011;7095;51.388;6.196;2022-10-10T10:38:54;17.47;;;4.40;;
14040;SDS011;7095;51.388;6.196;2022-10-10T10:41:31;7.67;;;3.67;;
14040;SDS011;7095;51.388;6.196;2022-10-10T10:44:14;10.60;;;4.20;;
14040;SDS011;7095;51.388;6.196;2022-10-10T10:46:53;9.80;;;3.40;;
14040;SDS011;7095;51.388;6.196;2022-10-10T10:49:34;17.07;;;4.67;;
14040;SDS011;7095;51.388;6.196;2022-10-10T10:52:20;17.00;;;4.27;;
14040;SDS011;7095;51.388;6.196;2022-10-10T10:57:56;13.57;;;4.27;;
14040;SDS011;7095;51.388;6.196;2022-10-10T11:01:10;8.17;;;3.77;;
14040;SDS011;7095;51.388;6.196;2022-10-10T11:04:04;8.07;;;3.93;;
14040;SDS011;7095;51.388;6.196;2022-10-10T11:07:03;13.70;;;3.93;;
14040;SDS011;7095;51.388;6.196;2022-10-10T11:09:48;13.97;;;4.07;;
14040;SDS011;7095;51.388;6.196;2022-10-10T11:12:36;18.33;;;5.10;;
14040;SDS011;7095;51.388;6.196;2022-10-10T11:15:15;10.40;;;4.07;;
14040;SDS011;7095;51.388;6.196;2022-10-10T11:17:48;11.37;;;3.87;;
14040;SDS011;7095;51.388;6.196;2022-10-10T11:20:23;10.70;;;3.50;;
14040;SDS011;7095;51.388;6.196;2022-10-10T11:22:58;18.67;;;4.93;;
14040;SDS011;7095;51.388;6.196;2022-10-10T11:25:35;11.80;;;4.40;;
14040;SDS011;7095;51.388;6.196;2022-10-10T11:28:10;9.33;;;3.70;;
14040;SDS011;7095;51.388;6.196;2022-10-10T11:30:43;14.37;;;4.17;;
14040;SDS011;7095;51.388;6.196;2022-10-10T11:33:18;10.93;;;4.17;;
14040;SDS011;7095;51.388;6.196;2022-10-10T11:35:51;9.57;;;3.93;;
14040;SDS011;7095;51.388;6.196;2022-10-10T11:38:25;8.93;;;4.07;;
14040;SDS011;7095;51.388;6.196;2022-10-10T11:40:59;10.30;;;4.33;;
14040;SDS011;7095;51.388;6.196;2022-10-10T11:43:33;13.47;;;4.17;;
14040;SDS011;7095;51.388;6.196;2022-10-10T11:46:11;12.87;;;4.30;;
14040;SDS011;7095;51.388;6.196;2022-10-10T11:48:49;11.53;;;4.20;;
14040;SDS011;7095;51.388;6.196;2022-10-10T11:51:25;12.40;;;3.87;;
14040;SDS011;7095;51.388;6.196;2022-10-10T11:54:05;22.80;;;4.93;;
14040;SDS011;7095;51.388;6.196;2022-10-10T11:56:41;18.83;;;4.23;;
14040;SDS011;7095;51.388;6.196;2022-10-10T11:59:14;11.13;;;4.33;;
14040;SDS011;7095;51.388;6.196;2022-10-10T12:01:51;12.90;;;4.77;;
14040;SDS011;7095;51.388;6.196;2022-10-10T12:04:23;15.67;;;4.83;;
14040;SDS011;7095;51.388;6.196;2022-10-10T12:06:53;12.23;;;4.00;;
14040;SDS011;7095;51.388;6.196;2022-10-10T12:09:30;14.07;;;4.70;;
14040;SDS011;7095;51.388;6.196;2022-10-10T12:12:06;15.87;;;4.73;;
14040;SDS011;7095;51.388;6.196;2022-10-10T12:14:42;15.13;;;4.40;;
14040;SDS011;7095;51.388;6.196;2022-10-10T12:17:21;9.87;;;4.47;;
14040;SDS011;7095;51.388;6.196;2022-10-10T12:19:55;15.40;;;4.40;;
14040;SDS011;7095;51.388;6.196;2022-10-10T12:22:36;10.37;;;3.90;;
14040;SDS011;7095;51.388;6.196;2022-10-10T12:25:16;16.33;;;4.33;;
14040;SDS011;7095;51.388;6.196;2022-10-10T12:28:20;13.80;;;4.70;;
14040;SDS011;7095;51.388;6.196;2022-10-10T12:33:59;14.23;;;4.40;;
14040;SDS011;7095;51.388;6.196;2022-10-10T12:36:42;11.20;;;4.23;;
14040;SDS011;7095;51.388;6.196;2022-10-10T12:39:36;14.73;;;4.43;;
14040;SDS011;7095;51.388;6.196;2022-10-10T12:44:57;12.83;;;4.37;;
14040;SDS011;7095;51.388;6.196;2022-10-10T12:47:27;9.07;;;4.13;;
14040;SDS011;7095;51.388;6.196;2022-10-10T12:50:21;18.20;;;4.23;;
14040;SDS011;7095;51.388;6.196;2022-10-10T12:52:53;13.03;;;3.90;;
14040;SDS011;7095;51.388;6.196;2022-10-10T12:55:25;18.33;;;4.07;;
14040;SDS011;7095;51.388;6.196;2022-10-10T12:57:59;9.27;;;3.50;;
14040;SDS011;7095;51.388;6.196;2022-10-10T13:00:34;15.03;;;4.07;;
14040;SDS011;7095;51.388;6.196;2022-10-10T13:03:09;15.23;;;4.13;;
14040;SDS011;7095;51.388;6.196;2022-10-10T13:05:44;14.53;;;3.60;;
14040;SDS011;7095;51.388;6.196;2022-10-10T13:08:16;13.23;;;3.53;;
14040;SDS011;7095;51.388;6.196;2022-10-10T13:10:59;9.63;;;3.13;;
14040;SDS011;7095;51.388;6.196;2022-10-10T13:13:31;16.10;;;3.37;;
14040;SDS011;7095;51.388;6.196;2022-10-10T13:16:04;10.20;;;3.43;;
14040;SDS011;7095;51.388;6.196;2022-10-10T13:18:35;9.53;;;3.20;;
14040;SDS011;7095;51.388;6.196;2022-10-10T13:21:06;10.43;;;3.10;;
14040;SDS011;7095;51.388;6.196;2022-10-10T13:23:39;11.37;;;3.13;;
14040;SDS011;7095;51.388;6.196;2022-10-10T13:26:16;9.73;;;2.90;;
14040;SDS011;7095;51.388;6.196;2022-10-10T13:28:50;12.13;;;3.40;;
14040;SDS011;7095;51.388;6.196;2022-10-10T13:31:20;11.53;;;3.67;;
14040;SDS011;7095;51.388;6.196;2022-10-10T13:33:49;12.13;;;3.50;;
14040;SDS011;7095;51.388;6.196;2022-10-10T13:36:18;9.43;;;3.40;;
14040;SDS011;7095;51.388;6.196;2022-10-10T13:38:51;11.93;;;3.93;;
14040;SDS011;7095;51.388;6.196;2022-10-10T13:41:20;7.73;;;2.93;;
14040;SDS011;7095;51.388;6.196;2022-10-10T13:43:51;8.83;;;3.20;;
14040;SDS011;7095;51.388;6.196;2022-10-10T13:46:20;10.27;;;3.27;;
14040;SDS011;7095;51.388;6.196;2022-10-10T13:48:49;7.97;;;2.93;;
14040;SDS011;7095;51.388;6.196;2022-10-10T13:51:18;9.73;;;3.80;;
14040;SDS011;7095;51.388;6.196;2022-10-10T13:53:47;12.43;;;3.37;;
14040;SDS011;7095;51.388;6.196;2022-10-10T13:56:23;17.40;;;3.53;;
14040;SDS011;7095;51.388;6.196;2022-10-10T13:59:05;6.23;;;3.20;;
14040;SDS011;7095;51.388;6.196;2022-10-10T14:01:38;11.10;;;3.77;;
14040;SDS011;7095;51.388;6.196;2022-10-10T14:04:15;10.97;;;3.37;;
14040;SDS011;7095;51.388;6.196;2022-10-10T14:06:49;13.70;;;3.27;;
14040;SDS011;7095;51.388;6.196;2022-10-10T14:09:24;12.30;;;3.80;;
14040;SDS011;7095;51.388;6.196;2022-10-10T14:11:56;7.93;;;3.40;;
14040;SDS011;7095;51.388;6.196;2022-10-10T14:14:33;12.67;;;3.73;;
14040;SDS011;7095;51.388;6.196;2022-10-10T14:17:06;9.43;;;3.57;;
14040;SDS011;7095;51.388;6.196;2022-10-10T14:19:36;12.30;;;4.13;;
14040;SDS011;7095;51.388;6.196;2022-10-10T14:22:05;11.53;;;3.50;;
14040;SDS011;7095;51.388;6.196;2022-10-10T14:24:34;10.10;;;3.53;;
14040;SDS011;7095;51.388;6.196;2022-10-10T14:27:04;9.43;;;3.70;;
14040;SDS011;7095;51.388;6.196;2022-10-10T14:29:36;15.33;;;4.47;;
14040;SDS011;7095;51.388;6.196;2022-10-10T14:32:05;14.30;;;3.70;;
14040;SDS011;7095;51.388;6.196;2022-10-10T14:34:35;11.13;;;3.73;;
14040;SDS011;7095;51.388;6.196;2022-10-10T14:37:04;7.67;;;3.97;;
14040;SDS011;7095;51.388;6.196;2022-10-10T14:39:33;11.67;;;3.60;;
14040;SDS011;7095;51.388;6.196;2022-10-10T14:42:01;17.83;;;4.53;;
14040;SDS011;7095;51.388;6.196;2022-10-10T14:44:37;9.43;;;4.10;;
14040;SDS011;7095;51.388;6.196;2022-10-10T14:47:05;6.60;;;3.60;;
14040;SDS011;7095;51.388;6.196;2022-10-10T14:49:34;13.67;;;4.37;;
14040;SDS011;7095;51.388;6.196;2022-10-10T14:52:02;10.43;;;4.20;;
14040;SDS011;7095;51.388;6.196;2022-10-10T14:54:31;12.57;;;3.90;;
14040;SDS011;7095;51.388;6.196;2022-10-10T14:56:59;11.33;;;4.30;;
14040;SDS011;7095;51.388;6.196;2022-10-10T14:59:36;10.87;;;4.17;;
14040;SDS011;7095;51.388;6.196;2022-10-10T15:02:16;16.00;;;4.40;;
14040;SDS011;7095;51.388;6.196;2022-10-10T15:04:45;10.80;;;4.87;;
14040;SDS011;7095;51.388;6.196;2022-10-10T15:07:14;12.40;;;4.57;;
14040;SDS011;7095;51.388;6.196;2022-10-10T15:09:44;8.20;;;4.60;;
14040;SDS011;7095;51.388;6.196;2022-10-10T15:12:35;10.97;;;4.90;;
14040;SDS011;7095;51.388;6.196;2022-10-10T15:15:06;11.63;;;5.33;;
14040;SDS011;7095;51.388;6.196;2022-10-10T15:17:35;11.20;;;6.07;;
14040;SDS011;7095;51.388;6.196;2022-10-10T15:20:05;13.17;;;5.30;;
14040;SDS011;7095;51.388;6.196;2022-10-10T15:22:35;13.60;;;5.80;;
14040;SDS011;7095;51.388;6.196;2022-10-10T15:25:05;16.07;;;6.30;;
14040;SDS011;7095;51.388;6.196;2022-10-10T15:27:35;14.37;;;6.90;;
14040;SDS011;7095;51.388;6.196;2022-10-10T15:30:06;10.53;;;5.70;;
14040;SDS011;7095;51.388;6.196;2022-10-10T15:32:36;19.87;;;6.97;;
14040;SDS011;7095;51.388;6.196;2022-10-10T15:35:06;12.63;;;6.33;;
14040;SDS011;7095;51.388;6.196;2022-10-10T15:37:39;16.50;;;5.70;;
14040;SDS011;7095;51.388;6.196;2022-10-10T15:40:08;9.83;;;4.13;;
14040;SDS011;7095;51.388;6.196;2022-10-10T15:42:37;8.33;;;4.27;;
14040;SDS011;7095;51.388;6.196;2022-10-10T15:45:08;9.30;;;3.90;;